sensor_id;sensor_type;location;lat;lon;timestamp;pressure;altitude;pressure_sealevel;temperature;humidity
68077;BME280;54866;53.458;14.540;2022-09-03T00:00:53;101360.53;;;11.97;68.57
68077;BME280;54866;53.458;14.540;2022-09-03T00:03:30;101360.60;;;11.96;68.46
68077;BME280;54866;53.458;14.540;2022-09-03T00:06:09;101364.76;;;11.95;68.76
68077;BME280;54866;53.458;14.540;2022-09-03T00:08:45;101354.32;;;11.88;68.70
68077;BME280;54866;53.458;14.540;2022-09-03T00:11:20;101367.41;;;11.93;68.95
68077;BME280;54866;53.458;14.540;2022-09-03T00:14:01;101365.10;;;11.90;69.03
68077;BME280;54866;53.458;14.540;2022-09-03T00:16:42;101357.58;;;11.87;69.00
68077;BME280;54866;53.458;14.540;2022-09-03T00:19:17;101362.49;;;11.87;69.34
68077;BME280;54866;53.458;14.540;2022-09-03T00:21:55;101357.00;;;11.88;69.21
68077;BME280;54866;53.458;14.540;2022-09-03T00:24:34;101348.02;;;11.85;69.71
68077;BME280;54866;53.458;14.540;2022-09-03T00:27:10;101357.15;;;11.86;69.40
68077;BME280;54866;53.458;14.540;2022-09-03T00:29:44;101354.20;;;11.85;69.62
68077;BME280;54866;53.458;14.540;2022-09-03T00:32:19;101354.39;;;11.85;70.06
68077;BME280;54866;53.458;14.540;2022-09-03T00:34:55;101357.77;;;11.85;69.90
68077;BME280;54866;53.458;14.540;2022-09-03T00:37:27;101349.95;;;11.78;70.02
68077;BME280;54866;53.458;14.540;2022-09-03T00:39:58;101354.30;;;11.81;70.10
68077;BME280;54866;53.458;14.540;2022-09-03T00:42:41;101357.10;;;11.78;70.01
68077;BME280;54866;53.458;14.540;2022-09-03T00:45:24;101357.09;;;11.78;70.18
68077;BME280;54866;53.458;14.540;2022-09-03T00:48:14;101357.42;;;11.79;70.33
68077;BME280;54866;53.458;14.540;2022-09-03T00:51:08;101356.66;;;11.77;70.39
68077;BME280;54866;53.458;14.540;2022-09-03T00:53:53;101357.57;;;11.76;70.24
68077;BME280;54866;53.458;14.540;2022-09-03T00:56:36;101358.77;;;11.75;70.32
68077;BME280;54866;53.458;14.540;2022-09-03T00:59:18;101361.58;;;11.73;70.42
68077;BME280;54866;53.458;14.540;2022-09-03T01:02:05;101353.08;;;11.65;70.56
68077;BME280;54866;53.458;14.540;2022-09-03T01:04:50;101358.31;;;11.69;70.70
68077;BME280;54866;53.458;14.540;2022-09-03T01:07:31;101356.83;;;11.65;71.04
68077;BME280;54866;53.458;14.540;2022-09-03T01:10:17;101353.27;;;11.60;71.63
68077;BME280;54866;53.458;14.540;2022-09-03T01:13:02;101354.52;;;11.58;71.86
68077;BME280;54866;53.458;14.540;2022-09-03T01:15:44;101355.61;;;11.60;71.80
68077;BME280;54866;53.458;14.540;2022-09-03T01:18:22;101350.36;;;11.59;72.05
68077;BME280;54866;53.458;14.540;2022-09-03T01:21:11;101350.89;;;11.59;71.86
68077;BME280;54866;53.458;14.540;2022-09-03T01:26:48;101347.11;;;11.56;72.10
68077;BME280;54866;53.458;14.540;2022-09-03T01:29:26;101348.45;;;11.54;72.15
68077;BME280;54866;53.458;14.540;2022-09-03T01:32:06;101347.99;;;11.53;72.40
68077;BME280;54866;53.458;14.540;2022-09-03T01:34:48;101350.33;;;11.50;72.74
68077;BME280;54866;53.458;14.540;2022-09-03T01:37:29;101346.95;;;11.48;72.77
68077;BME280;54866;53.458;14.540;2022-09-03T01:40:16;101354.77;;;11.44;72.95
68077;BME280;54866;53.458;14.540;2022-09-03T01:43:00;101356.10;;;11.41;73.03
68077;BME280;54866;53.458;14.540;2022-09-03T01:45:39;101357.35;;;11.36;73.21
68077;BME280;54866;53.458;14.540;2022-09-03T01:48:34;101359.11;;;11.33;73.35
68077;BME280;54866;53.458;14.540;2022-09-03T01:51:13;101355.27;;;11.30;73.84
68077;BME280;54866;53.458;14.540;2022-09-03T01:54:12;101355.66;;;11.27;73.76
68077;BME280;54866;53.458;14.540;2022-09-03T01:57:04;101351.37;;;11.23;74.52
68077;BME280;54866;53.458;14.540;2022-09-03T01:59:42;101353.30;;;11.23;74.74
68077;BME280;54866;53.458;14.540;2022-09-03T02:02:22;101357.55;;;11.23;74.73
68077;BME280;54866;53.458;14.540;2022-09-03T02:05:00;101354.00;;;11.21;75.02
68077;BME280;54866;53.458;14.540;2022-09-03T02:07:33;101356.46;;;11.18;75.29
68077;BME280;54866;53.458;14.540;2022-09-03T02:10:07;101348.31;;;11.16;75.69
68077;BME280;54866;53.458;14.540;2022-09-03T02:12:43;101353.86;;;11.17;75.58
68077;BME280;54866;53.458;14.540;2022-09-03T02:15:16;101352.73;;;11.16;75.67
68077;BME280;54866;53.458;14.540;2022-09-03T02:17:47;101349.73;;;11.14;76.06
68077;BME280;54866;53.458;14.540;2022-09-03T02:20:23;101348.79;;;11.12;76.07
68077;BME280;54866;53.458;14.540;2022-09-03T02:22:56;101351.52;;;11.11;76.32
68077;BME280;54866;53.458;14.540;2022-09-03T02:25:31;101347.55;;;11.09;76.58
68077;BME280;54866;53.458;14.540;2022-09-03T02:28:07;101342.69;;;11.06;76.74
68077;BME280;54866;53.458;14.540;2022-09-03T02:30:37;101343.10;;;11.02;77.19
68077;BME280;54866;53.458;14.540;2022-09-03T02:33:07;101344.34;;;11.02;77.33
68077;BME280;54866;53.458;14.540;2022-09-03T02:35:37;101341.97;;;11.01;77.32
68077;BME280;54866;53.458;14.540;2022-09-03T02:38:15;101342.02;;;11.00;77.40
68077;BME280;54866;53.458;14.540;2022-09-03T02:40:46;101337.73;;;10.96;77.62
68077;BME280;54866;53.458;14.540;2022-09-03T02:43:20;101340.91;;;10.94;77.76
68077;BME280;54866;53.458;14.540;2022-09-03T02:45:54;101340.67;;;10.89;78.01
68077;BME280;54866;53.458;14.540;2022-09-03T02:48:25;101343.97;;;10.90;78.33
68077;BME280;54866;53.458;14.540;2022-09-03T02:50:55;101340.23;;;10.88;78.75
68077;BME280;54866;53.458;14.540;2022-09-03T02:53:34;101332.64;;;10.80;78.80
68077;BME280;54866;53.458;14.540;2022-09-03T02:56:07;101336.65;;;10.84;79.02
68077;BME280;54866;53.458;14.540;2022-09-03T02:58:41;101343.25;;;10.83;79.37
68077;BME280;54866;53.458;14.540;2022-09-03T03:01:11;101337.84;;;10.82;79.40
68077;BME280;54866;53.458;14.540;2022-09-03T03:03:45;101340.16;;;10.81;79.21
68077;BME280;54866;53.458;14.540;2022-09-03T03:06:15;101338.62;;;10.81;79.41
68077;BME280;54866;53.458;14.540;2022-09-03T03:08:50;101339.15;;;10.81;79.74
68077;BME280;54866;53.458;14.540;2022-09-03T03:11:23;101341.14;;;10.80;79.71
68077;BME280;54866;53.458;14.540;2022-09-03T03:13:54;101348.10;;;10.79;79.74
68077;BME280;54866;53.458;14.540;2022-09-03T03:16:24;101345.31;;;10.79;79.98
68077;BME280;54866;53.458;14.540;2022-09-03T03:18:54;101342.72;;;10.80;79.88
68077;BME280;54866;53.458;14.540;2022-09-03T03:21:24;101346.34;;;10.79;80.27
68077;BME280;54866;53.458;14.540;2022-09-03T03:23:54;101346.39;;;10.81;80.17
68077;BME280;54866;53.458;14.540;2022-09-03T03:26:24;101344.06;;;10.79;80.00
68077;BME280;54866;53.458;14.540;2022-09-03T03:28:57;101347.08;;;10.76;80.40
68077;BME280;54866;53.458;14.540;2022-09-03T03:31:28;101347.16;;;10.74;80.38
68077;BME280;54866;53.458;14.540;2022-09-03T03:33:59;101346.85;;;10.74;80.79
68077;BME280;54866;53.458;14.540;2022-09-03T03:36:31;101347.92;;;10.74;80.46
68077;BME280;54866;53.458;14.540;2022-09-03T03:39:01;101350.61;;;10.70;80.93
68077;BME280;54866;53.458;14.540;2022-09-03T03:41:33;101346.92;;;10.68;80.86
68077;BME280;54866;53.458;14.540;2022-09-03T03:44:04;101352.86;;;10.69;81.02
68077;BME280;54866;53.458;14.540;2022-09-03T03:46:36;101351.02;;;10.70;81.38
68077;BME280;54866;53.458;14.540;2022-09-03T03:49:07;101350.38;;;10.71;81.42
68077;BME280;54866;53.458;14.540;2022-09-03T03:51:39;101350.39;;;10.71;81.26
68077;BME280;54866;53.458;14.540;2022-09-03T03:54:09;101354.23;;;10.69;81.24
68077;BME280;54866;53.458;14.540;2022-09-03T03:56:39;101352.82;;;10.67;81.04
68077;BME280;54866;53.458;14.540;2022-09-03T03:59:09;101353.56;;;10.64;81.41
68077;BME280;54866;53.458;14.540;2022-09-03T04:01:38;101346.77;;;10.63;81.75
68077;BME280;54866;53.458;14.540;2022-09-03T04:04:08;101351.09;;;10.61;81.79
68077;BME280;54866;53.458;14.540;2022-09-03T04:06:38;101352.88;;;10.61;81.64
68077;BME280;54866;53.458;14.540;2022-09-03T04:09:07;101351.98;;;10.58;81.64
68077;BME280;54866;53.458;14.540;2022-09-03T04:11:37;101350.02;;;10.55;81.92
68077;BME280;54866;53.458;14.540;2022-09-03T04:14:07;101355.44;;;10.54;81.89
68077;BME280;54866;53.458;14.540;2022-09-03T04:16:37;101358.02;;;10.54;81.92
68077;BME280;54866;53.458;14.540;2022-09-03T04:19:06;101354.19;;;10.54;82.01
68077;BME280;54866;53.458;14.540;2022-09-03T04:21:36;101353.21;;;10.55;81.98
68077;BME280;54866;53.458;14.540;2022-09-03T04:24:06;101350.77;;;10.57;81.82
68077;BME280;54866;53.458;14.540;2022-09-03T04:26:36;101353.77;;;10.57;81.76
68077;BME280;54866;53.458;14.540;2022-09-03T04:29:08;101357.53;;;10.60;81.99
68077;BME280;54866;53.458;14.540;2022-09-03T04:31:38;101351.20;;;10.57;81.81
68077;BME280;54866;53.458;14.540;2022-09-03T04:34:28;101351.42;;;10.62;81.79
68077;BME280;54866;53.458;14.540;2022-09-03T04:36:58;101356.73;;;10.64;81.72
68077;BME280;54866;53.458;14.540;2022-09-03T04:39:28;101356.44;;;10.65;81.71
68077;BME280;54866;53.458;14.540;2022-09-03T04:42:01;101358.24;;;10.67;81.74
68077;BME280;54866;53.458;14.540;2022-09-03T04:44:31;101360.48;;;10.71;81.63
68077;BME280;54866;53.458;14.540;2022-09-03T04:47:05;101359.89;;;10.74;81.33
68077;BME280;54866;53.458;14.540;2022-09-03T04:49:35;101361.70;;;10.76;81.32
68077;BME280;54866;53.458;14.540;2022-09-03T04:52:05;101359.81;;;10.80;81.09
68077;BME280;54866;53.458;14.540;2022-09-03T04:54:34;101362.17;;;10.84;81.07
68077;BME280;54866;53.458;14.540;2022-09-03T04:57:04;101361.15;;;10.89;80.79
68077;BME280;54866;53.458;14.540;2022-09-03T04:59:34;101357.75;;;10.92;80.70
68077;BME280;54866;53.458;14.540;2022-09-03T05:02:04;101357.06;;;10.97;80.58
68077;BME280;54866;53.458;14.540;2022-09-03T05:04:34;101356.52;;;11.37;79.89
68077;BME280;54866;53.458;14.540;2022-09-03T05:07:04;101358.33;;;12.78;75.74
68077;BME280;54866;53.458;14.540;2022-09-03T05:09:35;101351.83;;;14.17;70.14
68077;BME280;54866;53.458;14.540;2022-09-03T05:12:06;101346.31;;;15.33;65.53
68077;BME280;54866;53.458;14.540;2022-09-03T05:14:36;101348.17;;;16.18;61.12
68077;BME280;54866;53.458;14.540;2022-09-03T05:17:06;101346.04;;;17.05;58.98
68077;BME280;54866;53.458;14.540;2022-09-03T05:19:36;101348.05;;;17.77;56.06
68077;BME280;54866;53.458;14.540;2022-09-03T05:22:05;101345.50;;;18.28;53.03
68077;BME280;54866;53.458;14.540;2022-09-03T05:24:36;101337.96;;;18.70;51.72
68077;BME280;54866;53.458;14.540;2022-09-03T05:27:06;101341.30;;;19.31;50.06
68077;BME280;54866;53.458;14.540;2022-09-03T05:29:37;101342.88;;;19.80;48.85
68077;BME280;54866;53.458;14.540;2022-09-03T05:32:07;101343.58;;;20.18;47.21
68077;BME280;54866;53.458;14.540;2022-09-03T05:34:36;101344.81;;;20.42;45.77
68077;BME280;54866;53.458;14.540;2022-09-03T05:37:06;101343.59;;;20.76;45.09
68077;BME280;54866;53.458;14.540;2022-09-03T05:39:36;101347.39;;;20.94;44.01
68077;BME280;54866;53.458;14.540;2022-09-03T05:42:06;101345.95;;;21.14;43.41
68077;BME280;54866;53.458;14.540;2022-09-03T05:44:36;101338.11;;;21.51;42.27
68077;BME280;54866;53.458;14.540;2022-09-03T05:47:06;101337.50;;;22.06;42.01
68077;BME280;54866;53.458;14.540;2022-09-03T05:49:36;101337.64;;;22.50;40.73
68077;BME280;54866;53.458;14.540;2022-09-03T05:52:07;101335.23;;;22.48;39.80
68077;BME280;54866;53.458;14.540;2022-09-03T05:54:38;101333.79;;;22.84;39.27
68077;BME280;54866;53.458;14.540;2022-09-03T05:57:07;101335.86;;;23.09;39.16
68077;BME280;54866;53.458;14.540;2022-09-03T05:59:37;101341.98;;;23.76;38.12
68077;BME280;54866;53.458;14.540;2022-09-03T06:02:07;101337.38;;;23.67;37.12
68077;BME280;54866;53.458;14.540;2022-09-03T06:04:37;101331.68;;;23.44;37.35
68077;BME280;54866;53.458;14.540;2022-09-03T06:07:07;101336.79;;;23.61;36.97
68077;BME280;54866;53.458;14.540;2022-09-03T06:09:37;101337.23;;;23.61;36.80
68077;BME280;54866;53.458;14.540;2022-09-03T06:12:07;101336.23;;;23.32;37.19
68077;BME280;54866;53.458;14.540;2022-09-03T06:14:37;101332.90;;;23.56;36.97
68077;BME280;54866;53.458;14.540;2022-09-03T06:17:07;101338.61;;;23.39;36.65
68077;BME280;54866;53.458;14.540;2022-09-03T06:19:38;101335.25;;;23.75;36.51
68077;BME280;54866;53.458;14.540;2022-09-03T06:22:08;101340.58;;;24.20;35.70
68077;BME280;54866;53.458;14.540;2022-09-03T06:24:38;101343.27;;;24.65;34.96
68077;BME280;54866;53.458;14.540;2022-09-03T06:27:08;101338.55;;;25.06;34.21
68077;BME280;54866;53.458;14.540;2022-09-03T06:29:38;101340.05;;;25.53;33.49
68077;BME280;54866;53.458;14.540;2022-09-03T06:32:07;101339.58;;;25.96;32.92
68077;BME280;54866;53.458;14.540;2022-09-03T06:34:37;101336.70;;;26.09;32.45
68077;BME280;54866;53.458;14.540;2022-09-03T06:37:07;101340.56;;;25.90;32.29
68077;BME280;54866;53.458;14.540;2022-09-03T06:39:36;101344.80;;;25.80;32.21
68077;BME280;54866;53.458;14.540;2022-09-03T06:42:08;101343.62;;;26.66;30.94
68077;BME280;54866;53.458;14.540;2022-09-03T06:44:38;101338.77;;;26.82;30.38
68077;BME280;54866;53.458;14.540;2022-09-03T06:47:07;101342.65;;;27.41;30.14
68077;BME280;54866;53.458;14.540;2022-09-03T06:49:37;101341.99;;;27.95;30.01
68077;BME280;54866;53.458;14.540;2022-09-03T06:52:07;101337.59;;;28.33;29.19
68077;BME280;54866;53.458;14.540;2022-09-03T06:54:37;101336.02;;;28.67;28.82
68077;BME280;54866;53.458;14.540;2022-09-03T06:57:08;101339.05;;;28.65;28.72
68077;BME280;54866;53.458;14.540;2022-09-03T06:59:37;101336.53;;;28.28;28.44
68077;BME280;54866;53.458;14.540;2022-09-03T07:02:07;101338.23;;;27.73;29.52
68077;BME280;54866;53.458;14.540;2022-09-03T07:04:37;101339.06;;;27.05;29.98
68077;BME280;54866;53.458;14.540;2022-09-03T07:07:07;101340.23;;;26.80;30.19
68077;BME280;54866;53.458;14.540;2022-09-03T07:09:40;101337.40;;;26.70;30.71
68077;BME280;54866;53.458;14.540;2022-09-03T07:12:10;101339.16;;;26.44;30.97
68077;BME280;54866;53.458;14.540;2022-09-03T07:14:43;101338.75;;;26.70;30.95
68077;BME280;54866;53.458;14.540;2022-09-03T07:17:13;101336.80;;;26.57;30.84
68077;BME280;54866;53.458;14.540;2022-09-03T07:19:43;101335.69;;;26.42;30.74
68077;BME280;54866;53.458;14.540;2022-09-03T07:22:13;101331.09;;;26.77;30.38
68077;BME280;54866;53.458;14.540;2022-09-03T07:24:43;101334.77;;;26.62;30.97
68077;BME280;54866;53.458;14.540;2022-09-03T07:27:14;101332.85;;;27.34;30.48
68077;BME280;54866;53.458;14.540;2022-09-03T07:29:45;101325.64;;;27.25;29.83
68077;BME280;54866;53.458;14.540;2022-09-03T07:32:14;101329.69;;;27.67;29.81
68077;BME280;54866;53.458;14.540;2022-09-03T07:34:44;101328.83;;;28.15;29.34
68077;BME280;54866;53.458;14.540;2022-09-03T07:37:14;101327.50;;;27.96;29.03
68077;BME280;54866;53.458;14.540;2022-09-03T07:39:46;101332.17;;;27.80;29.41
68077;BME280;54866;53.458;14.540;2022-09-03T07:42:16;101334.05;;;28.20;29.10
68077;BME280;54866;53.458;14.540;2022-09-03T07:44:46;101338.14;;;28.07;29.06
68077;BME280;54866;53.458;14.540;2022-09-03T07:47:16;101339.03;;;28.48;29.01
68077;BME280;54866;53.458;14.540;2022-09-03T07:49:47;101337.08;;;28.15;28.51
68077;BME280;54866;53.458;14.540;2022-09-03T07:52:17;101346.48;;;27.98;28.56
68077;BME280;54866;53.458;14.540;2022-09-03T07:54:47;101347.23;;;27.76;29.05
68077;BME280;54866;53.458;14.540;2022-09-03T07:57:17;101348.84;;;27.81;29.23
68077;BME280;54866;53.458;14.540;2022-09-03T07:59:46;101348.98;;;27.30;29.28
68077;BME280;54866;53.458;14.540;2022-09-03T08:02:16;101346.04;;;27.27;29.48
68077;BME280;54866;53.458;14.540;2022-09-03T08:04:46;101342.95;;;27.49;29.52
68077;BME280;54866;53.458;14.540;2022-09-03T08:07:16;101343.61;;;27.88;29.04
68077;BME280;54866;53.458;14.540;2022-09-03T08:09:46;101339.30;;;28.04;28.46
68077;BME280;54866;53.458;14.540;2022-09-03T08:12:15;101340.42;;;28.13;28.43
68077;BME280;54866;53.458;14.540;2022-09-03T08:14:45;101345.28;;;28.66;28.01
68077;BME280;54866;53.458;14.540;2022-09-03T08:17:15;101342.30;;;29.15;27.40
68077;BME280;54866;53.458;14.540;2022-09-03T08:19:45;101346.64;;;29.28;27.32
68077;BME280;54866;53.458;14.540;2022-09-03T08:22:14;101345.17;;;29.85;26.97
68077;BME280;54866;53.458;14.540;2022-09-03T08:24:44;101342.37;;;30.40;26.60
68077;BME280;54866;53.458;14.540;2022-09-03T08:27:14;101341.41;;;30.41;25.80
68077;BME280;54866;53.458;14.540;2022-09-03T08:29:44;101343.20;;;30.73;25.70
68077;BME280;54866;53.458;14.540;2022-09-03T08:32:16;101340.18;;;31.13;25.53
68077;BME280;54866;53.458;14.540;2022-09-03T08:34:46;101340.73;;;31.32;24.51
68077;BME280;54866;53.458;14.540;2022-09-03T08:37:16;101342.24;;;30.06;24.99
68077;BME280;54866;53.458;14.540;2022-09-03T08:39:46;101342.83;;;29.45;25.86
68077;BME280;54866;53.458;14.540;2022-09-03T08:42:42;101344.96;;;29.08;26.64
68077;BME280;54866;53.458;14.540;2022-09-03T08:45:18;101340.92;;;29.40;26.24
68077;BME280;54866;53.458;14.540;2022-09-03T08:47:50;101332.58;;;28.59;27.00
68077;BME280;54866;53.458;14.540;2022-09-03T08:50:26;101338.93;;;28.34;27.25
68077;BME280;54866;53.458;14.540;2022-09-03T08:52:59;101336.59;;;28.14;27.28
68077;BME280;54866;53.458;14.540;2022-09-03T08:55:33;101333.60;;;28.52;27.09
68077;BME280;54866;53.458;14.540;2022-09-03T08:58:12;101326.02;;;28.17;27.04
68077;BME280;54866;53.458;14.540;2022-09-03T09:00:49;101322.45;;;28.10;27.32
68077;BME280;54866;53.458;14.540;2022-09-03T09:03:45;101326.14;;;28.08;27.35
68077;BME280;54866;53.458;14.540;2022-09-03T09:06:27;101327.75;;;28.79;26.89
68077;BME280;54866;53.458;14.540;2022-09-03T09:09:11;101323.91;;;28.79;26.42
68077;BME280;54866;53.458;14.540;2022-09-03T09:11:49;101317.95;;;28.66;26.45
68077;BME280;54866;53.458;14.540;2022-09-03T09:14:28;101312.33;;;28.67;26.00
68077;BME280;54866;53.458;14.540;2022-09-03T09:17:12;101318.20;;;28.71;26.30
68077;BME280;54866;53.458;14.540;2022-09-03T09:19:51;101319.92;;;29.45;25.67
68077;BME280;54866;53.458;14.540;2022-09-03T09:22:29;101317.13;;;29.32;25.51
68077;BME280;54866;53.458;14.540;2022-09-03T09:25:05;101320.73;;;29.28;25.73
68077;BME280;54866;53.458;14.540;2022-09-03T09:27:37;101318.69;;;29.18;25.69
68077;BME280;54866;53.458;14.540;2022-09-03T09:30:11;101315.75;;;29.62;25.46
68077;BME280;54866;53.458;14.540;2022-09-03T09:32:45;101311.61;;;29.90;24.48
68077;BME280;54866;53.458;14.540;2022-09-03T09:35:17;101308.84;;;29.71;24.59
68077;BME280;54866;53.458;14.540;2022-09-03T09:37:52;101308.16;;;29.57;24.68
68077;BME280;54866;53.458;14.540;2022-09-03T09:40:30;101309.52;;;29.43;25.37
68077;BME280;54866;53.458;14.540;2022-09-03T09:43:21;101303.24;;;29.76;25.30
68077;BME280;54866;53.458;14.540;2022-09-03T09:45:52;101299.59;;;30.37;25.17
68077;BME280;54866;53.458;14.540;2022-09-03T09:48:26;101298.62;;;30.71;24.36
68077;BME280;54866;53.458;14.540;2022-09-03T09:51:10;101293.54;;;30.57;24.19
68077;BME280;54866;53.458;14.540;2022-09-03T09:53:41;101291.86;;;30.35;23.75
68077;BME280;54866;53.458;14.540;2022-09-03T09:59:34;101287.90;;;30.21;23.85
68077;BME280;54866;53.458;14.540;2022-09-03T10:02:11;101293.49;;;30.35;23.91
68077;BME280;54866;53.458;14.540;2022-09-03T10:04:43;101286.51;;;30.64;23.84
68077;BME280;54866;53.458;14.540;2022-09-03T10:07:24;101284.61;;;30.30;23.31
68077;BME280;54866;53.458;14.540;2022-09-03T10:10:03;101284.54;;;29.70;23.24
68077;BME280;54866;53.458;14.540;2022-09-03T10:12:38;101282.52;;;29.68;23.73
68077;BME280;54866;53.458;14.540;2022-09-03T10:15:21;101286.02;;;29.14;23.97
68077;BME280;54866;53.458;14.540;2022-09-03T10:17:59;101285.27;;;29.14;23.71
68077;BME280;54866;53.458;14.540;2022-09-03T10:20:38;101283.95;;;29.05;24.05
68077;BME280;54866;53.458;14.540;2022-09-03T10:23:19;101286.56;;;28.79;23.82
68077;BME280;54866;53.458;14.540;2022-09-03T10:25:58;101280.64;;;28.49;24.06
68077;BME280;54866;53.458;14.540;2022-09-03T10:28:36;101271.98;;;28.24;24.90
68077;BME280;54866;53.458;14.540;2022-09-03T10:31:24;101269.91;;;28.17;24.88
68077;BME280;54866;53.458;14.540;2022-09-03T10:34:05;101266.30;;;28.14;24.40
68077;BME280;54866;53.458;14.540;2022-09-03T10:36:38;101267.29;;;27.51;25.14
68077;BME280;54866;53.458;14.540;2022-09-03T10:39:15;101267.73;;;27.80;25.20
68077;BME280;54866;53.458;14.540;2022-09-03T10:42:00;101261.55;;;27.39;26.01
68077;BME280;54866;53.458;14.540;2022-09-03T10:44:45;101266.56;;;27.56;25.92
68077;BME280;54866;53.458;14.540;2022-09-03T10:47:31;101266.73;;;27.15;25.58
68077;BME280;54866;53.458;14.540;2022-09-03T10:50:12;101255.34;;;27.09;25.46
68077;BME280;54866;53.458;14.540;2022-09-03T10:52:57;101256.70;;;27.12;25.44
68077;BME280;54866;53.458;14.540;2022-09-03T10:55:43;101265.54;;;27.43;25.60
68077;BME280;54866;53.458;14.540;2022-09-03T10:58:30;101257.06;;;27.43;25.53
68077;BME280;54866;53.458;14.540;2022-09-03T11:01:13;101244.41;;;27.11;25.23
68077;BME280;54866;53.458;14.540;2022-09-03T11:03:48;101252.80;;;26.39;25.99
68077;BME280;54866;53.458;14.540;2022-09-03T11:06:25;101259.52;;;25.19;27.60
68077;BME280;54866;53.458;14.540;2022-09-03T11:09:00;101264.23;;;24.27;28.98
68077;BME280;54866;53.458;14.540;2022-09-03T11:11:37;101258.52;;;23.95;29.76
68077;BME280;54866;53.458;14.540;2022-09-03T11:14:12;101262.77;;;23.21;31.50
68077;BME280;54866;53.458;14.540;2022-09-03T11:16:47;101260.01;;;22.72;32.15
68077;BME280;54866;53.458;14.540;2022-09-03T11:19:22;101257.30;;;22.52;31.81
68077;BME280;54866;53.458;14.540;2022-09-03T11:21:56;101247.34;;;23.25;31.11
68077;BME280;54866;53.458;14.540;2022-09-03T11:24:27;101247.21;;;24.05;30.41
68077;BME280;54866;53.458;14.540;2022-09-03T11:27:08;101240.55;;;24.55;28.95
68077;BME280;54866;53.458;14.540;2022-09-03T11:29:50;101249.12;;;23.97;30.34
68077;BME280;54866;53.458;14.540;2022-09-03T11:32:27;101237.20;;;23.73;30.47
68077;BME280;54866;53.458;14.540;2022-09-03T11:35:01;101238.08;;;23.68;30.65
68077;BME280;54866;53.458;14.540;2022-09-03T11:37:51;101230.95;;;23.20;31.99
68077;BME280;54866;53.458;14.540;2022-09-03T11:40:31;101228.61;;;23.27;31.84
68077;BME280;54866;53.458;14.540;2022-09-03T11:43:10;101222.77;;;23.10;32.67
68077;BME280;54866;53.458;14.540;2022-09-03T11:45:42;101222.18;;;23.17;32.53
68077;BME280;54866;53.458;14.540;2022-09-03T11:48:27;101220.76;;;23.94;31.53
68077;BME280;54866;53.458;14.540;2022-09-03T11:51:00;101208.88;;;24.12;30.82
68077;BME280;54866;53.458;14.540;2022-09-03T11:53:35;101214.67;;;23.77;31.23
68077;BME280;54866;53.458;14.540;2022-09-03T11:56:18;101213.21;;;24.14;30.84
68077;BME280;54866;53.458;14.540;2022-09-03T11:59:15;101209.05;;;24.98;29.82
68077;BME280;54866;53.458;14.540;2022-09-03T12:01:49;101192.85;;;25.38;28.81
68077;BME280;54866;53.458;14.540;2022-09-03T12:04:26;101190.45;;;25.60;28.08
68077;BME280;54866;53.458;14.540;2022-09-03T12:07:20;101189.70;;;24.77;29.23
68077;BME280;54866;53.458;14.540;2022-09-03T12:10:23;101190.21;;;25.30;28.99
68077;BME280;54866;53.458;14.540;2022-09-03T12:13:08;101189.17;;;25.00;29.62
68077;BME280;54866;53.458;14.540;2022-09-03T12:15:53;101192.80;;;24.46;30.50
68077;BME280;54866;53.458;14.540;2022-09-03T12:18:30;101195.30;;;24.10;31.56
68077;BME280;54866;53.458;14.540;2022-09-03T12:21:06;101194.48;;;24.16;31.33
68077;BME280;54866;53.458;14.540;2022-09-03T12:23:42;101192.67;;;24.35;30.72
68077;BME280;54866;53.458;14.540;2022-09-03T12:26:14;101180.08;;;25.00;30.11
68077;BME280;54866;53.458;14.540;2022-09-03T12:28:46;101172.39;;;25.45;28.54
68077;BME280;54866;53.458;14.540;2022-09-03T12:31:19;101172.39;;;25.81;27.74
68077;BME280;54866;53.458;14.540;2022-09-03T12:33:52;101174.61;;;24.91;28.51
68077;BME280;54866;53.458;14.540;2022-09-03T12:36:23;101168.45;;;24.02;30.12
68077;BME280;54866;53.458;14.540;2022-09-03T12:38:53;101173.09;;;23.84;31.06
68077;BME280;54866;53.458;14.540;2022-09-03T12:41:25;101172.27;;;24.38;30.17
68077;BME280;54866;53.458;14.540;2022-09-03T12:43:57;101158.67;;;24.77;29.71
68077;BME280;54866;53.458;14.540;2022-09-03T12:46:29;101162.85;;;25.00;29.70
68077;BME280;54866;53.458;14.540;2022-09-03T12:49:01;101157.96;;;25.06;29.54
68077;BME280;54866;53.458;14.540;2022-09-03T12:51:35;101153.55;;;25.33;29.14
68077;BME280;54866;53.458;14.540;2022-09-03T12:54:07;101149.91;;;25.29;29.20
68077;BME280;54866;53.458;14.540;2022-09-03T12:56:44;101147.32;;;25.62;28.37
68077;BME280;54866;53.458;14.540;2022-09-03T12:59:18;101144.85;;;26.04;28.49
68077;BME280;54866;53.458;14.540;2022-09-03T13:01:52;101137.77;;;26.25;27.22
68077;BME280;54866;53.458;14.540;2022-09-03T13:04:26;101142.77;;;26.14;28.07
68077;BME280;54866;53.458;14.540;2022-09-03T13:07:02;101138.23;;;25.45;28.33
68077;BME280;54866;53.458;14.540;2022-09-03T13:09:36;101142.14;;;24.48;29.74
68077;BME280;54866;53.458;14.540;2022-09-03T13:12:07;101148.20;;;23.94;30.93
68077;BME280;54866;53.458;14.540;2022-09-03T13:14:49;101146.84;;;23.44;31.45
68077;BME280;54866;53.458;14.540;2022-09-03T13:17:34;101150.15;;;23.28;32.05
68077;BME280;54866;53.458;14.540;2022-09-03T13:20:19;101140.25;;;23.82;31.89
68077;BME280;54866;53.458;14.540;2022-09-03T13:23:09;101134.72;;;24.29;30.64
68077;BME280;54866;53.458;14.540;2022-09-03T13:25:49;101125.24;;;24.52;30.35